Latest Weather Observations for Witchcliffe

IDW60801

Issued at 9:05 pm WST Saturday 1 November 2014 (issued every 30 minutes, with the page automatically refreshed every 10 minutes)

About weather observations | Map of weather stations | Latest weather observations for WA | Other Formats
Station Details ID: 009746 Name: WITCHCLIFFE Lat: -34.03 Lon: 115.10 Height: 80.0 m
Data from the previous 72 hours. | See also: Recent months at Witchcliffe
Date/Time
WST
Temp
°C
App
Temp
°C
Dew
Point
Rel
Hum
%
Delta-T
°C
Wind Press
QNH
hPa
Press
MSL
hPa
Rain
since 9 am
mm
Dir
 
Spd
km/h
Gust
km/h
Spd
kts
Gust
kts
01/09:00pm 14.5 15.4 13.0 91 0.8 SE 0 0 0 0 1015.8 1015.7 0.0
01/08:30pm 14.8 15.6 12.7 87 1.2 SSE 0 0 0 0 1016.2 1016.1 0.0
01/08:00pm 15.4 16.4 13.1 86 1.3 CALM 0 6 0 3 1016.2 1016.1 0.0
01/07:30pm 16.2 17.0 12.4 78 2.1 CALM 0 0 0 0 1016.1 1016.0 0.0
01/07:00pm 17.8 18.6 12.5 71 3.0 CALM 0 6 0 3 1016.0 1015.9 0.0
01/06:30pm 18.5 17.5 12.3 67 3.5 WNW 9 11 5 6 1015.8 1015.7 0.0
01/06:00pm 19.4 17.6 10.7 57 4.7 NW 11 19 6 10 1015.7 1015.6 0.0
01/05:30pm 20.2 17.2 10.6 54 5.2 WNW 17 26 9 14 1015.8 1015.7 0.0
01/05:00pm 22.2 19.6 11.9 52 5.8 W 17 22 9 12 1015.5 1015.4 0.0
01/04:30pm 23.8 21.3 11.2 45 7.1 WNW 15 20 8 11 1015.2 1015.1 0.0
01/04:00pm 24.2 21.2 10.8 43 7.5 NW 17 24 9 13 1015.1 1015.0 0.0
01/03:30pm 24.5 21.3 11.1 43 7.5 N 19 24 10 13 1015.2 1015.1 0.0
01/03:00pm 25.2 19.2 5.4 28 10.1 N 26 37 14 20 1015.3 1015.2 0.0
01/02:30pm 25.3 19.4 6.0 29 10.0 N 26 33 14 18 1015.4 1015.3 0.0
01/02:00pm 25.3 20.0 7.0 31 9.6 N 24 37 13 20 1015.7 1015.6 0.0
01/01:30pm 25.1 19.6 5.8 29 9.9 N 24 33 13 18 1015.9 1015.8 0.0
01/01:00pm 24.6 19.2 6.4 31 9.4 N 24 33 13 18 1016.3 1016.2 0.0
01/12:30pm 24.7 18.8 7.4 33 9.1 N 28 35 15 19 1016.4 1016.3 0.0
01/12:00pm 23.9 18.9 7.9 36 8.5 N 24 33 13 18 1016.8 1016.7 0.0
01/11:30am 23.9 18.5 7.9 36 8.5 N 26 32 14 17 1017.4 1017.3 0.0
01/11:00am 23.8 18.8 8.2 37 8.3 NNE 24 30 13 16 1017.8 1017.7 0.0
01/10:30am 22.5 18.6 8.6 41 7.4 NNE 19 28 10 15 1017.9 1017.8 0.0
01/10:00am 21.4 17.4 8.3 43 6.9 NE 19 28 10 15 1017.8 1017.7 0.0
01/09:30am 20.3 17.2 8.9 48 6.0 NE 15 22 8 12 1018.5 1018.4 0.0
01/09:00am 19.4 16.3 9.0 51 5.5 NE 15 22 8 12 1018.4 1018.3 -
01/08:30am 17.3 13.9 7.6 53 4.9 NE 15 22 8 12 1018.6 1018.5 -
01/08:00am 15.6 12.3 8.1 61 3.8 ENE 15 20 8 11 1018.8 1018.7 -
01/07:30am 14.1 11.2 8.1 67 3.0 ENE 13 24 7 13 1018.7 1018.7 -
01/07:00am 12.3 10.0 9.0 80 1.7 ENE 11 19 6 10 1018.9 1018.9 -
01/06:30am 9.5 8.1 9.4 99 0.0 E 7 9 4 5 1018.9 1018.9 -
01/06:00am 7.7 6.8 7.6 99 0.0 E 2 9 1 5 1018.9 1018.9 -
01/05:30am 6.2 5.3 6.1 99 0.0 CALM 0 0 0 0 1018.6 1018.6 -
01/05:00am 6.5 5.7 6.4 99 0.0 CALM 0 0 0 0 1018.4 1018.4 -
01/04:30am 6.8 6.0 6.7 99 0.0 CALM 0 0 0 0 1018.3 1018.3 -
01/04:00am 7.3 5.5 7.2 99 0.0 SE 6 7 3 4 1018.3 1018.3 -
01/03:30am 7.5 6.1 7.1 97 0.2 SE 4 7 2 4 1018.5 1018.5 -
01/03:00am 7.9 6.8 7.1 95 0.4 SE 2 7 1 4 1018.4 1018.4 -
01/02:30am 8.4 6.4 7.3 93 0.5 SE 7 11 4 6 1018.6 1018.6 -
01/02:00am 9.0 6.7 7.6 91 0.7 SE 9 11 5 6 1018.7 1018.7 -
01/01:30am 9.2 6.8 7.2 87 0.9 SE 9 15 5 8 1018.7 1018.7 -
01/01:00am 9.8 7.5 7.4 85 1.1 SE 9 13 5 7 1019.0 1019.0 -
01/12:30am 10.1 7.8 7.3 83 1.3 SE 9 13 5 7 1019.3 1019.3 -
01/12:00am 10.5 7.9 7.6 82 1.4 SE 11 17 6 9 1019.6 1019.6 -
 
Date/Time
WST
Temp
°C
App
Temp
°C
Dew
Point
Rel
Hum
%
Delta-T
°C
Wind Press
QNH
hPa
Press
MSL
hPa
Rain
since 9 am
mm
Dir
 
Spd
km/h
Gust
km/h
Spd
kts
Gust
kts
31/11:00pm 11.0 8.0 7.5 79 1.7 SSE 13 19 7 10 1020.1 1020.0 0.2
31/10:30pm 11.4 8.0 7.5 77 1.9 SSE 15 20 8 11 1019.9 1019.9 0.2
31/10:00pm 11.9 8.5 7.6 75 2.1 SSE 15 19 8 10 1020.1 1020.0 0.2
31/09:30pm 12.4 9.1 7.9 74 2.2 SSE 15 19 8 10 1020.4 1020.3 0.2
31/09:00pm 12.7 10.0 8.8 77 2.0 SSE 13 22 7 12 1020.3 1020.2 0.2
31/08:30pm 12.9 10.2 8.8 76 2.1 SSE 13 19 7 10 1020.3 1020.2 0.2
31/08:00pm 13.3 10.2 8.8 74 2.3 SSE 15 19 8 10 1019.9 1019.9 0.2
31/07:30pm 13.6 10.5 8.7 72 2.5 SSE 15 20 8 11 1019.6 1019.6 0.2
31/07:00pm 14.1 10.5 8.5 69 2.8 SSE 17 24 9 13 1019.4 1019.4 0.2
31/06:30pm 14.5 10.4 8.5 67 3.0 SSE 20 28 11 15 1018.9 1018.9 0.2
31/06:00pm 15.4 11.6 8.9 65 3.3 SSE 19 26 10 14 1019.0 1019.0 0.2
31/05:30pm 15.8 11.4 8.8 63 3.6 SSE 22 33 12 18 1018.8 1018.8 0.2
31/05:00pm 16.7 12.3 8.9 60 4.0 S 22 33 12 18 1019.1 1019.1 0.2
31/04:30pm 17.5 12.9 9.7 60 4.1 S 24 33 13 18 1018.8 1018.8 0.2
31/04:00pm 17.6 13.3 9.5 59 4.3 S 22 32 12 17 1018.6 1018.6 0.2
31/03:30pm 18.3 14.1 9.9 58 4.5 S 22 30 12 16 1018.2 1018.2 0.2
31/03:00pm 18.3 14.4 8.8 54 4.9 S 19 30 10 16 1018.0 1018.0 0.2
31/02:30pm 19.4 16.1 9.6 53 5.2 S 17 26 9 14 1018.1 1018.1 0.2
31/02:00pm 19.3 15.9 9.2 52 5.3 SSE 17 24 9 13 1018.3 1018.3 0.2
31/01:30pm 19.0 15.1 8.6 51 5.4 SSE 19 33 10 18 1018.1 1018.1 0.2
31/01:00pm 17.7 13.4 7.2 50 5.3 SSE 19 35 10 19 1018.2 1018.2 0.2
31/12:30pm 18.0 13.8 8.3 53 5.0 SSE 20 35 11 19 1018.3 1018.3 0.0
31/12:00pm 18.0 12.8 7.4 50 5.4 SE 24 37 13 20 1018.4 1018.4 0.0
31/11:30am 17.5 13.6 8.6 56 4.6 SSE 19 30 10 16 1018.5 1018.5 0.0
31/11:00am 17.3 13.3 9.0 58 4.3 S 20 33 11 18 1018.9 1018.9 0.0
31/10:30am 16.6 13.2 9.1 61 3.9 S 17 22 9 12 1019.2 1019.2 0.0
31/10:00am 15.7 10.8 8.4 62 3.7 SSE 24 33 13 18 1018.9 1018.9 0.0
31/09:30am 15.8 11.7 7.8 59 4.0 S 19 32 10 17 1018.5 1018.5 0.0
31/09:00am 15.8 11.9 9.5 66 3.3 SSE 20 32 11 17 1018.4 1018.4 3.2
31/08:30am 15.2 11.7 8.7 65 3.3 SSE 17 22 9 12 1018.3 1018.3 3.2
31/08:00am 14.7 11.2 7.3 61 3.6 S 15 20 8 11 1017.9 1017.9 3.2
31/07:30am 14.0 10.5 7.1 63 3.4 S 15 19 8 10 1017.8 1017.8 3.2
31/07:00am 13.5 10.5 7.7 68 2.9 S 13 22 7 12 1017.5 1017.5 3.2
31/06:30am 12.8 11.0 7.0 68 2.8 S 6 11 3 6 1017.2 1017.2 3.2
31/06:00am 12.2 10.2 6.9 70 2.5 S 7 11 4 6 1016.9 1016.9 3.2
31/05:30am 11.6 9.7 6.5 71 2.4 S 6 9 3 5 1016.6 1016.6 3.2
31/05:00am 12.3 9.7 5.9 65 3.0 S 9 17 5 9 1016.2 1016.2 3.2
31/04:30am 11.9 8.4 5.5 65 3.0 SSW 13 17 7 9 1015.8 1015.8 3.2
31/04:00am 11.9 9.2 5.8 66 2.9 S 9 15 5 8 1015.4 1015.4 3.2
31/03:30am 11.9 8.9 6.2 68 2.7 S 11 13 6 7 1015.3 1015.3 3.2
31/03:00am 12.0 8.6 6.1 67 2.8 S 13 19 7 10 1015.1 1015.1 3.2
31/02:30am 12.7 9.5 7.0 68 2.8 SSW 13 20 7 11 1014.8 1014.8 3.2
31/02:00am 13.0 9.8 7.0 67 2.9 S 13 22 7 12 1014.6 1014.6 3.2
31/01:30am 13.6 10.5 8.9 73 2.4 SSW 15 20 8 11 1014.3 1014.3 3.2
31/01:00am 13.8 10.9 9.5 75 2.2 SSW 15 24 8 13 1014.2 1014.2 3.2
31/12:30am 14.1 11.4 10.3 78 2.0 SSW 15 22 8 12 1014.2 1014.2 3.2
31/12:00am 14.4 12.5 13.0 91 0.8 SSW 15 28 8 15 1014.2 1014.2 3.2
 
Date/Time
WST
Temp
°C
App
Temp
°C
Dew
Point
Rel
Hum
%
Delta-T
°C
Wind Press
QNH
hPa
Press
MSL
hPa
Rain
since 9 am
mm
Dir
 
Spd
km/h
Gust
km/h
Spd
kts
Gust
kts
30/11:30pm 14.3 12.0 14.1 99 0.1 SSW 19 32 10 17 1014.2 1014.2 3.2
30/11:00pm 14.5 12.1 14.5 100 0.0 SSW 20 35 11 19 1013.8 1013.8 2.8
30/10:30pm 15.0 12.4 14.8 99 0.1 SW 22 33 12 18 1013.6 1013.6 2.0
30/10:00pm 15.6 13.7 14.1 91 0.9 W 17 30 9 16 1013.6 1013.6 0.8
30/09:30pm 16.8 13.9 12.3 75 2.5 W 19 28 10 15 1013.5 1013.4 0.0
30/09:00pm 16.4 14.0 12.8 79 2.0 WNW 17 32 9 17 1013.7 1013.7 0.0
30/08:30pm 16.6 14.3 11.9 74 2.6 WNW 15 26 8 14 1013.7 1013.7 0.0
30/08:00pm 16.4 14.1 11.8 74 2.5 W 15 26 8 14 1013.7 1013.7 0.0
30/07:30pm 16.6 14.1 11.1 70 3.0 W 15 24 8 13 1013.7 1013.7 0.0
30/07:00pm 16.4 13.9 10.9 70 3.0 W 15 24 8 13 1013.5 1013.4 0.0
30/06:30pm 16.1 14.1 11.5 74 2.5 W 13 22 7 12 1013.3 1013.2 0.0
30/06:00pm 16.6 13.8 11.3 71 2.9 W 17 26 9 14 1013.3 1013.2 0.0
30/05:30pm 17.2 13.8 11.2 68 3.3 W 20 32 11 17 1013.0 1012.9 0.0
30/05:00pm 16.9 14.2 11.8 72 2.8 WNW 17 26 9 14 1012.9 1012.8 0.0
30/04:30pm 17.2 13.0 11.0 67 3.3 WNW 24 33 13 18 1012.9 1012.8 0.0
30/04:00pm 17.9 14.1 11.0 64 3.7 WNW 22 35 12 19 1012.7 1012.6 0.0
30/03:30pm 17.5 13.5 11.8 69 3.1 WNW 24 39 13 21 1012.8 1012.7 0.0
30/03:00pm 17.5 13.3 9.9 61 4.0 W 22 35 12 19 1012.8 1012.7 0.0
30/02:30pm 17.5 14.0 10.9 65 3.6 WNW 20 32 11 17 1013.1 1013.0 0.0
30/02:00pm 17.7 14.3 10.6 63 3.8 WNW 19 30 10 16 1013.4 1013.3 0.0
30/01:30pm 17.8 14.2 9.7 59 4.3 W 19 28 10 15 1013.6 1013.6 0.0
30/01:00pm 17.0 13.5 10.1 64 3.7 WNW 19 32 10 17 1013.5 1013.4 0.0
30/12:30pm 17.8 13.8 8.9 56 4.6 WNW 20 30 11 16 1013.5 1013.4 0.0
30/12:00pm 17.7 13.8 8.8 56 4.6 W 19 28 10 15 1013.6 1013.6 0.0
30/11:30am 17.4 15.2 9.3 59 4.2 WNW 11 19 6 10 1013.7 1013.7 0.0
30/11:00am 18.7 15.9 10.0 57 4.6 W 15 26 8 14 1013.9 1013.9 0.0
30/10:30am 18.1 15.4 8.9 55 4.8 WNW 13 24 7 13 1014.2 1014.2 0.0
30/10:00am 17.4 14.3 8.8 57 4.5 W 15 20 8 11 1014.6 1014.6 0.0
30/09:30am 17.3 13.8 8.7 57 4.4 W 17 22 9 12 1014.7 1014.7 0.0
30/09:00am 16.7 15.7 8.9 60 4.0 WSW 4 20 2 11 1014.6 1014.6 0.0
30/08:30am 16.3 14.7 8.8 61 3.9 NW 7 11 4 6 1014.6 1014.6 0.0
30/08:00am 16.3 14.9 9.0 62 3.8 NW 6 9 3 5 1014.7 1014.7 0.0
30/07:30am 15.7 14.3 8.9 64 3.5 SSW 6 9 3 5 1014.6 1014.6 0.0
30/07:00am 14.3 14.9 11.8 85 1.3 CALM 0 7 0 4 1014.7 1014.7 0.0
30/06:30am 13.0 13.8 12.5 97 0.3 CALM 0 0 0 0 1014.9 1014.9 0.0
30/06:00am 12.3 13.0 12.1 99 0.1 CALM 0 0 0 0 1015.0 1015.0 0.0
30/05:30am 11.8 12.3 11.6 99 0.1 CALM 0 0 0 0 1014.9 1014.9 0.0
30/05:00am 11.5 11.9 11.3 99 0.1 CALM 0 0 0 0 1014.8 1014.8 0.0
30/04:30am 11.5 11.9 11.2 98 0.2 CALM 0 0 0 0 1014.9 1014.9 0.0
30/04:00am 11.1 11.4 10.8 98 0.2 CALM 0 0 0 0 1015.1 1015.1 0.0
30/03:30am 10.5 10.5 9.7 95 0.4 CALM 0 0 0 0 1014.9 1014.9 0.0
30/03:00am 10.9 10.9 9.8 93 0.6 CALM 0 6 0 3 1015.0 1015.0 0.0
30/02:30am 11.2 10.0 10.3 94 0.5 SSW 7 11 4 6 1014.9 1014.9 0.0
30/02:00am 10.2 8.7 8.3 88 0.9 SSW 6 7 3 4 1014.7 1014.7 0.0
30/01:30am 11.0 9.4 8.6 85 1.2 SSW 7 9 4 5 1014.9 1014.9 0.0
30/01:00am 11.7 9.7 8.7 82 1.5 SSW 9 11 5 6 1015.0 1015.0 0.0
30/12:30am 12.1 10.2 9.1 82 1.5 SSW 9 13 5 7 1015.4 1015.4 0.0
30/12:00am 12.6 10.7 9.2 80 1.7 SSW 9 13 5 7 1015.5 1015.5 0.0
 
Date/Time
WST
Temp
°C
App
Temp
°C
Dew
Point
Rel
Hum
%
Delta-T
°C
Wind Press
QNH
hPa
Press
MSL
hPa
Rain
since 9 am
mm
Dir
 
Spd
km/h
Gust
km/h
Spd
kts
Gust
kts
29/11:30pm 13.3 11.1 9.5 78 1.9 SSW 11 13 6 7 1015.5 1015.5 0.0
29/11:00pm 13.1 11.2 10.5 84 1.4 SSW 11 15 6 8 1015.8 1015.8 0.0
29/10:30pm 12.5 11.0 10.6 88 1.0 SSW 9 11 5 6 1016.0 1016.0 0.0
29/10:00pm 12.5 11.6 10.6 88 1.0 S 6 9 3 5 1016.2 1016.2 0.0
29/09:30pm 12.8 11.7 10.7 87 1.1 S 7 13 4 7 1016.4 1016.4 0.0

Other Formats:

Comma delimited format used in spreadsheet applications
http://www.bom.gov.au/fwo/IDW60801/IDW60801.95641.axf

JavaScript Object Notation format (JSON) in row-major order
http://www.bom.gov.au/fwo/IDW60801/IDW60801.95641.json